DAOB/TID METAR and TAF weather

Enter ICAO airport designator
Station Type Date Time Source
DAOB METAR 2019/10/21 02:00 UTC NOAA

DAOB 210200Z 00000KT 9999 SCT026 11/10 Q1018


Station Type Date Time Source
DAOB Decoded METAR 2019/10/21 02:00 UTC NOAA

Tiaret, Algeria (DAOB) 35-15N 001-26E 1127M
Oct 20, 2019 - 10:00 PM EDT / 2019.10.21 0200 UTC
Wind: Calm:0
Visibility: greater than 7 mile(s):0
Sky conditions: partly cloudy
Temperature: 51 F (11 C)
Dew Point: 50 F (10 C)
Relative Humidity: 93%
Pressure (altimeter): 30.06 in. Hg (1018 hPa)
ob: DAOB 210200Z 00000KT 9999 SCT026 11/10 Q1018
cycle: 2

Station Type Date Time Source
DAOB TAF 2019/10/20 18:33 UTC NOAA

TAF DAOB 201700Z 2018/2118 28014KT 9999 BKN026
TEMPO 2018/2024 FEW023CB PROB40
TEMPO 2018/2023 32015G25KT 5000 -TSRA FEW023CB
BECMG 2022/2102 VRB02KT PROB40
TEMPO 2100/2106 BKN012
BECMG 2106/2109 18012KT
BECMG 2114/2117 32012KT
TEMPO 2115/2118 FEW026CB

Example: see airport list